Time;durP1;ratioP1;P1;durP2;ratioP2;P2;SDS_P1;SDS_P2;PMS_P1;PMS_P2;Temp;Humidity;BMP_temperature;BMP_pressure;BME280_temperature;BME280_humidity;BME280_pressure;Samples;Min_cycle;Max_cycle;Signal;HPM_P1;HPM_P2
2023/10/18 00:01:22;;;;;;;10.40;3.70;;;;;;;;;;5038352;28;20381;-65
2023/10/18 00:03:48;;;;;;;6.82;3.03;;;;;;;;;;5036894;28;20390;-64
2023/10/18 00:06:21;;;;;;;7.10;3.58;;;;;;;;;;5041047;28;20033;-64
2023/10/18 00:08:47;;;;;;;8.05;3.50;;;;;;;;;;5043682;28;20017;-66
2023/10/18 00:11:15;;;;;;;10.55;3.25;;;;;;;;;;5045205;28;20543;-64
2023/10/18 00:13:41;;;;;;;7.78;3.53;;;;;;;;;;5047923;28;20400;-65
2023/10/18 00:16:08;;;;;;;9.50;3.28;;;;;;;;;;5044712;28;20078;-64
2023/10/18 00:18:34;;;;;;;11.15;3.50;;;;;;;;;;5046344;28;20033;-64
2023/10/18 00:21:00;;;;;;;7.93;3.15;;;;;;;;;;5041137;28;20025;-65
2023/10/18 00:23:27;;;;;;;6.10;3.30;;;;;;;;;;5046257;28;20577;-65
2023/10/18 00:25:54;;;;;;;7.30;3.13;;;;;;;;;;5044337;28;20370;-64
2023/10/18 00:28:20;;;;;;;6.45;3.10;;;;;;;;;;5046801;28;20473;-64
2023/10/18 00:30:49;;;;;;;8.20;3.95;;;;;;;;;;5042802;28;20033;-64
2023/10/18 00:33:18;;;;;;;8.10;3.60;;;;;;;;;;5043234;28;20440;-64
2023/10/18 00:35:44;;;;;;;7.20;3.38;;;;;;;;;;5043507;28;20365;-67
2023/10/18 00:38:14;;;;;;;12.48;3.95;;;;;;;;;;5043526;28;20033;-64
2023/10/18 00:40:40;;;;;;;4.50;3.20;;;;;;;;;;5043881;28;20033;-65
2023/10/18 00:43:29;;;;;;;8.63;3.63;;;;;;;;;;5042347;28;20488;-65
2023/10/18 00:45:55;;;;;;;5.43;3.20;;;;;;;;;;5040472;28;20481;-70
2023/10/18 00:48:25;;;;;;;9.55;3.80;;;;;;;;;;5046107;28;20021;-64
2023/10/18 00:50:52;;;;;;;5.25;3.30;;;;;;;;;;5043769;28;20060;-66
2023/10/18 00:53:23;;;;;;;8.52;3.60;;;;;;;;;;5043004;28;20040;-66
2023/10/18 00:55:57;;;;;;;7.50;3.35;;;;;;;;;;5044463;28;20381;-67
2023/10/18 00:58:30;;;;;;;9.02;3.38;;;;;;;;;;5040262;28;20264;-65
2023/10/18 01:00:57;;;;;;;7.60;3.10;;;;;;;;;;5045435;28;20473;-65
2023/10/18 01:03:32;;;;;;;10.68;3.38;;;;;;;;;;5039306;28;20032;-65
2023/10/18 01:05:59;;;;;;;12.63;3.72;;;;;;;;;;5035943;28;20037;-65
2023/10/18 01:08:25;;;;;;;7.75;3.85;;;;;;;;;;5048831;28;20492;-64
2023/10/18 01:10:52;;;;;;;11.18;3.92;;;;;;;;;;5043425;28;20127;-66
2023/10/18 01:13:20;;;;;;;7.68;3.85;;;;;;;;;;5041645;28;20036;-65
2023/10/18 01:15:48;;;;;;;6.80;3.47;;;;;;;;;;5042423;28;20025;-67
2023/10/18 01:18:14;;;;;;;9.75;3.92;;;;;;;;;;5044779;28;20071;-66
2023/10/18 01:20:41;;;;;;;10.90;3.53;;;;;;;;;;5038915;28;20562;-66
2023/10/18 01:23:07;;;;;;;7.53;3.30;;;;;;;;;;5044734;28;20120;-66
2023/10/18 01:25:34;;;;;;;11.07;3.90;;;;;;;;;;5043586;28;20064;-69
2023/10/18 01:28:00;;;;;;;9.05;3.40;;;;;;;;;;5059104;28;20508;-66
2023/10/18 01:30:29;;;;;;;5.68;3.00;;;;;;;;;;5040480;28;20025;-65
2023/10/18 01:32:55;;;;;;;6.40;4.35;;;;;;;;;;5041283;28;20036;-66
2023/10/18 01:35:21;;;;;;;7.88;3.45;;;;;;;;;;5037851;28;20116;-66
2023/10/18 01:37:49;;;;;;;9.80;3.10;;;;;;;;;;5047083;28;20846;-66
2023/10/18 01:40:41;;;;;;;11.82;4.10;;;;;;;;;;5044636;28;20036;-66
2023/10/18 01:43:07;;;;;;;6.57;3.78;;;;;;;;;;5047881;28;20029;-66
2023/10/18 01:45:38;;;;;;;6.68;3.17;;;;;;;;;;5038308;28;20059;-66
2023/10/18 01:48:09;;;;;;;10.77;4.10;;;;;;;;;;5037250;28;20500;-69
2023/10/18 01:50:38;;;;;;;5.53;3.22;;;;;;;;;;5047339;28;20099;-65
2023/10/18 01:53:05;;;;;;;7.20;3.03;;;;;;;;;;5046428;28;20099;-65
2023/10/18 01:55:35;;;;;;;6.93;3.50;;;;;;;;;;5040257;28;20090;-69
2023/10/18 01:58:01;;;;;;;6.95;3.70;;;;;;;;;;5046509;28;20446;-66
2023/10/18 02:00:34;;;;;;;10.30;3.53;;;;;;;;;;5041644;28;20037;-67
2023/10/18 02:03:02;;;;;;;8.63;3.33;;;;;;;;;;5042726;28;20545;-65
2023/10/18 02:05:30;;;;;;;9.77;3.15;;;;;;;;;;5044194;28;20188;-66
2023/10/18 02:07:56;;;;;;;10.00;3.47;;;;;;;;;;5039351;28;20027;-66
2023/10/18 02:10:23;;;;;;;9.38;3.28;;;;;;;;;;5040158;28;20036;-67
2023/10/18 02:12:50;;;;;;;14.77;3.50;;;;;;;;;;5033858;28;20025;-66
2023/10/18 02:15:16;;;;;;;6.70;3.10;;;;;;;;;;5040367;28;20118;-66
2023/10/18 02:17:43;;;;;;;6.90;3.50;;;;;;;;;;5041158;28;20017;-67
2023/10/18 02:20:25;;;;;;;7.38;3.40;;;;;;;;;;5042183;28;20033;-65
2023/10/18 02:22:53;;;;;;;7.95;3.40;;;;;;;;;;5042736;28;20334;-66
2023/10/18 02:28:08;;;;;;;4.97;3.07;;;;;;;;;;5044415;28;20045;-66
2023/10/18 02:30:38;;;;;;;8.32;4.57;;;;;;;;;;5036312;28;20280;-66
2023/10/18 02:33:05;;;;;;;8.85;3.97;;;;;;;;;;5040184;28;20029;-66
2023/10/18 02:35:40;;;;;;;6.55;3.13;;;;;;;;;;5038459;28;20087;-66
2023/10/18 02:38:12;;;;;;;8.93;3.95;;;;;;;;;;5042219;28;20489;-66
2023/10/18 02:40:38;;;;;;;6.22;3.60;;;;;;;;;;5042869;28;20076;-67
2023/10/18 02:43:08;;;;;;;10.25;3.40;;;;;;;;;;5041445;28;20037;-66
2023/10/18 02:45:34;;;;;;;7.15;3.00;;;;;;;;;;5036648;28;20540;-66
2023/10/18 02:48:00;;;;;;;11.15;3.80;;;;;;;;;;5039964;28;20033;-66
2023/10/18 02:50:30;;;;;;;5.97;3.45;;;;;;;;;;5043630;28;20025;-66
2023/10/18 02:52:57;;;;;;;6.47;3.30;;;;;;;;;;5037106;28;20397;-66
2023/10/18 02:55:26;;;;;;;4.38;3.00;;;;;;;;;;5037149;28;20033;-67
2023/10/18 02:57:52;;;;;;;6.90;3.38;;;;;;;;;;5042446;28;20020;-71
2023/10/18 03:00:19;;;;;;;8.30;3.17;;;;;;;;;;5040812;28;20037;-67
2023/10/18 03:02:46;;;;;;;5.97;2.75;;;;;;;;;;5030407;28;20159;-66
2023/10/18 03:05:12;;;;;;;6.28;3.35;;;;;;;;;;5041336;28;20112;-68
2023/10/18 03:07:41;;;;;;;8.57;3.30;;;;;;;;;;5038450;28;20036;-67
2023/10/18 03:10:27;;;;;;;6.72;3.25;;;;;;;;;;5033028;28;20056;-66
2023/10/18 03:12:53;;;;;;;8.77;4.07;;;;;;;;;;5042672;28;20090;-67
2023/10/18 03:15:21;;;;;;;7.18;2.95;;;;;;;;;;5041011;28;20363;-66
2023/10/18 03:17:49;;;;;;;5.38;3.35;;;;;;;;;;5058770;28;20041;-65
2023/10/18 03:20:22;;;;;;;9.20;3.65;;;;;;;;;;5035439;28;20021;-65
2023/10/18 03:22:49;;;;;;;8.57;3.30;;;;;;;;;;5043507;28;20493;-65
2023/10/18 03:25:31;;;;;;;10.15;3.40;;;;;;;;;;5025246;28;20064;-65
2023/10/18 03:28:04;;;;;;;11.20;3.58;;;;;;;;;;5040644;28;20120;-65
2023/10/18 03:30:44;;;;;;;5.10;3.78;;;;;;;;;;5033148;28;20037;-68
2023/10/18 03:33:12;;;;;;;10.30;3.88;;;;;;;;;;5040777;28;20024;-65
2023/10/18 03:35:43;;;;;;;3.47;3.17;;;;;;;;;;5041164;28;20053;-64
2023/10/18 03:38:21;;;;;;;9.55;3.72;;;;;;;;;;5041507;28;20049;-64
2023/10/18 03:40:57;;;;;;;10.27;3.58;;;;;;;;;;5041326;28;20485;-65
2023/10/18 03:43:26;;;;;;;6.72;3.80;;;;;;;;;;5047398;28;20036;-64
2023/10/18 03:48:54;;;;;;;7.47;4.20;;;;;;;;;;4986164;28;20041;-65
2023/10/18 03:51:23;;;;;;;7.28;3.45;;;;;;;;;;5035197;28;20068;-64
2023/10/18 03:53:53;;;;;;;6.82;3.58;;;;;;;;;;5043400;28;20110;-65
2023/10/18 03:56:22;;;;;;;6.57;3.65;;;;;;;;;;5039393;28;20029;-64
2023/10/18 03:58:53;;;;;;;12.57;4.20;;;;;;;;;;5043086;28;20032;-64
2023/10/18 04:01:21;;;;;;;8.10;3.65;;;;;;;;;;5042384;28;20424;-65
2023/10/18 04:03:49;;;;;;;8.63;3.97;;;;;;;;;;5047933;28;21194;-64
2023/10/18 04:06:23;;;;;;;7.22;3.75;;;;;;;;;;5047107;28;20150;-65
2023/10/18 04:08:50;;;;;;;8.25;3.83;;;;;;;;;;5044352;28;20089;-64
2023/10/18 04:11:24;;;;;;;7.55;3.70;;;;;;;;;;5046973;28;20032;-65
2023/10/18 04:13:51;;;;;;;8.60;3.90;;;;;;;;;;5034904;28;20033;-65
2023/10/18 04:16:18;;;;;;;6.10;3.80;;;;;;;;;;5044126;28;20133;-64
2023/10/18 04:18:44;;;;;;;8.57;3.55;;;;;;;;;;5046089;28;20029;-65
2023/10/18 04:21:15;;;;;;;8.95;3.53;;;;;;;;;;5045667;28;20036;-64
2023/10/18 04:23:49;;;;;;;11.77;3.90;;;;;;;;;;5043729;28;20393;-66
2023/10/18 04:26:19;;;;;;;10.95;4.38;;;;;;;;;;5045328;28;20017;-65
2023/10/18 04:28:45;;;;;;;7.97;3.67;;;;;;;;;;5039614;28;20192;-65
2023/10/18 04:31:12;;;;;;;10.15;4.22;;;;;;;;;;5045729;28;20033;-66
2023/10/18 04:33:42;;;;;;;9.60;4.03;;;;;;;;;;5038149;28;20450;-65
2023/10/18 04:36:11;;;;;;;8.45;3.88;;;;;;;;;;5041276;28;20036;-66
2023/10/18 04:38:47;;;;;;;7.65;3.78;;;;;;;;;;5044750;28;20448;-65
2023/10/18 04:41:23;;;;;;;14.27;4.38;;;;;;;;;;5041526;28;20476;-66
2023/10/18 04:44:18;;;;;;;10.50;4.38;;;;;;;;;;5034424;28;20053;-65
2023/10/18 04:46:36;;;;;;;8.82;4.28;;;;;;;;;;5044060;28;20477;-66
2023/10/18 04:54:18;;;;;;;10.82;5.38;;;;;;;;;;5042949;28;20512;-66
2023/10/18 04:56:45;;;;;;;9.23;5.03;;;;;;;;;;5041163;28;20100;-66
2023/10/18 05:04:32;;;;;;;8.05;4.22;;;;;;;;;;5042410;28;20040;-66
2023/10/18 05:07:14;;;;;;;8.68;5.15;;;;;;;;;;5041517;28;20083;-66
2023/10/18 05:09:43;;;;;;;12.68;4.70;;;;;;;;;;5041127;28;20061;-65
2023/10/18 05:14:53;;;;;;;9.02;5.03;;;;;;;;;;5043221;28;20390;-67
2023/10/18 05:17:26;;;;;;;9.65;5.05;;;;;;;;;;5044399;28;20103;-66
2023/10/18 05:19:55;;;;;;;7.78;4.32;;;;;;;;;;5042071;28;20392;-66
2023/10/18 05:22:25;;;;;;;11.15;4.70;;;;;;;;;;5043097;28;20090;-66
2023/10/18 05:27:59;;;;;;;9.02;4.80;;;;;;;;;;5043208;28;20052;-66
2023/10/18 05:33:15;;;;;;;7.32;4.50;;;;;;;;;;5016369;28;20100;-65
2023/10/18 05:35:45;;;;;;;10.70;4.18;;;;;;;;;;5038925;28;20044;-68
2023/10/18 05:43:03;;;;;;;9.07;4.55;;;;;;;;;;5043766;28;20043;-66
2023/10/18 05:45:33;;;;;;;9.70;5.07;;;;;;;;;;5041884;28;20461;-65
2023/10/18 05:48:03;;;;;;;8.13;4.20;;;;;;;;;;5046347;28;20552;-67
2023/10/18 05:50:34;;;;;;;13.48;5.07;;;;;;;;;;5043953;28;20025;-64
2023/10/18 05:53:03;;;;;;;7.68;4.15;;;;;;;;;;5047113;28;20409;-66
2023/10/18 05:55:32;;;;;;;7.38;4.57;;;;;;;;;;5045181;28;20032;-67
2023/10/18 05:58:04;;;;;;;14.25;5.50;;;;;;;;;;5045471;28;20044;-65
2023/10/18 06:00:32;;;;;;;7.40;4.15;;;;;;;;;;5044896;28;20083;-66
2023/10/18 06:02:59;;;;;;;10.80;4.95;;;;;;;;;;5039127;28;20029;-65
2023/10/18 06:05:30;;;;;;;9.65;4.90;;;;;;;;;;5043429;28;20021;-65
2023/10/18 06:07:57;;;;;;;12.15;5.18;;;;;;;;;;5039154;28;20029;-64
2023/10/18 06:10:23;;;;;;;11.70;4.57;;;;;;;;;;5042217;28;20049;-65
2023/10/18 06:12:56;;;;;;;9.48;5.05;;;;;;;;;;5037646;28;20112;-65
2023/10/18 06:15:34;;;;;;;6.10;4.47;;;;;;;;;;5042290;28;20021;-65
2023/10/18 06:18:00;;;;;;;15.25;4.72;;;;;;;;;;5040938;28;20044;-65
2023/10/18 06:20:30;;;;;;;14.45;5.70;;;;;;;;;;5044490;28;20051;-65
2023/10/18 06:23:09;;;;;;;12.63;6.05;;;;;;;;;;5040721;28;20800;-65
2023/10/18 06:25:38;;;;;;;8.65;4.55;;;;;;;;;;5040160;28;20033;-65
2023/10/18 06:28:07;;;;;;;13.45;5.18;;;;;;;;;;5038842;28;20021;-64
2023/10/18 06:30:39;;;;;;;12.27;6.35;;;;;;;;;;5045141;28;20029;-64
2023/10/18 06:33:07;;;;;;;11.38;5.65;;;;;;;;;;5038317;28;20040;-64
2023/10/18 06:35:42;;;;;;;9.13;5.25;;;;;;;;;;5038124;28;20512;-64
2023/10/18 06:38:17;;;;;;;12.52;4.88;;;;;;;;;;5033890;28;20040;-65
2023/10/18 06:43:27;;;;;;;8.13;5.00;;;;;;;;;;5040416;28;20045;-64
2023/10/18 06:45:54;;;;;;;8.23;5.78;;;;;;;;;;5042174;28;20037;-64
2023/10/18 06:48:26;;;;;;;11.55;5.20;;;;;;;;;;5043968;28;20029;-65
2023/10/18 06:50:53;;;;;;;7.68;4.72;;;;;;;;;;5037813;28;21838;-65
2023/10/18 06:53:20;;;;;;;12.82;5.72;;;;;;;;;;5035241;28;20033;-65
2023/10/18 06:55:57;;;;;;;11.35;5.72;;;;;;;;;;5032877;28;20035;-65
2023/10/18 07:01:03;;;;;;;15.05;5.65;;;;;;;;;;5039906;28;20033;-65
2023/10/18 07:03:29;;;;;;;17.92;5.93;;;;;;;;;;5039156;28;20949;-66
2023/10/18 07:06:04;;;;;;;10.85;5.32;;;;;;;;;;5040851;28;20032;-65
2023/10/18 07:08:34;;;;;;;9.35;5.07;;;;;;;;;;5036534;28;20028;-66
2023/10/18 07:11:08;;;;;;;12.13;5.47;;;;;;;;;;5042356;28;20124;-66
2023/10/18 07:13:38;;;;;;;12.25;5.35;;;;;;;;;;5036626;28;20056;-66
2023/10/18 07:16:06;;;;;;;12.65;5.35;;;;;;;;;;5041163;28;20021;-66
2023/10/18 07:18:36;;;;;;;14.68;4.97;;;;;;;;;;5036528;28;20100;-66
2023/10/18 07:21:09;;;;;;;8.02;5.03;;;;;;;;;;5043593;28;20668;-65
2023/10/18 07:23:36;;;;;;;14.45;6.15;;;;;;;;;;5039943;28;20106;-64
2023/10/18 07:26:07;;;;;;;16.42;5.50;;;;;;;;;;5037028;28;20029;-65
2023/10/18 07:28:35;;;;;;;16.90;6.70;;;;;;;;;;5034446;28;20434;-65
2023/10/18 07:31:08;;;;;;;12.95;6.35;;;;;;;;;;5041985;28;20044;-65
2023/10/18 07:33:36;;;;;;;14.25;6.63;;;;;;;;;;5037201;28;20020;-65
2023/10/18 07:36:03;;;;;;;11.82;6.00;;;;;;;;;;5037731;28;20403;-65
2023/10/18 07:38:29;;;;;;;12.27;5.38;;;;;;;;;;5036779;28;20044;-65
2023/10/18 07:40:56;;;;;;;12.82;6.22;;;;;;;;;;5041090;28;20287;-66
2023/10/18 07:43:25;;;;;;;13.55;6.32;;;;;;;;;;5038800;28;20065;-65
2023/10/18 07:45:55;;;;;;;14.23;6.40;;;;;;;;;;5038596;28;20029;-66
2023/10/18 07:48:23;;;;;;;13.30;7.75;;;;;;;;;;5043822;28;20033;-65
2023/10/18 07:50:54;;;;;;;17.30;6.28;;;;;;;;;;5038607;28;21148;-68
2023/10/18 07:53:22;;;;;;;12.02;8.20;;;;;;;;;;5043264;28;20499;-66
2023/10/18 07:55:53;;;;;;;13.88;6.05;;;;;;;;;;5037261;28;20037;-65
2023/10/18 07:58:26;;;;;;;13.10;5.88;;;;;;;;;;5035574;28;20028;-66
2023/10/18 08:03:25;;;;;;;14.85;7.25;;;;;;;;;;5037726;28;20029;-65
2023/10/18 08:05:51;;;;;;;14.68;6.03;;;;;;;;;;5039676;28;20124;-68
2023/10/18 08:08:17;;;;;;;11.73;5.95;;;;;;;;;;5038997;28;20091;-66
2023/10/18 08:10:44;;;;;;;8.30;5.65;;;;;;;;;;5037818;28;20125;-70
2023/10/18 08:13:10;;;;;;;15.98;6.65;;;;;;;;;;5038492;28;20021;-69
2023/10/18 08:15:37;;;;;;;12.40;6.30;;;;;;;;;;5037224;28;20028;-68
2023/10/18 08:18:16;;;;;;;11.43;6.88;;;;;;;;;;5038313;28;20582;-69
2023/10/18 08:26:03;;;;;;;12.10;6.85;;;;;;;;;;5042269;28;20044;-69
2023/10/18 08:28:38;;;;;;;15.57;6.18;;;;;;;;;;5038571;28;20028;-69
2023/10/18 08:31:15;;;;;;;11.07;7.38;;;;;;;;;;5042764;28;20029;-67
2023/10/18 08:33:42;;;;;;;14.15;5.40;;;;;;;;;;5042293;28;20134;-66
2023/10/18 08:36:13;;;;;;;13.25;6.40;;;;;;;;;;5042591;28;20098;-68
2023/10/18 08:38:41;;;;;;;14.32;6.43;;;;;;;;;;5038240;28;20048;-65
2023/10/18 08:41:15;;;;;;;20.92;7.65;;;;;;;;;;5037900;28;20033;-66
2023/10/18 08:43:52;;;;;;;16.42;6.88;;;;;;;;;;5039168;28;20091;-67
2023/10/18 08:46:24;;;;;;;19.52;6.30;;;;;;;;;;5042142;28;20027;-67
2023/10/18 08:48:51;;;;;;;19.48;6.20;;;;;;;;;;5041247;28;20120;-66
2023/10/18 08:51:19;;;;;;;15.98;5.82;;;;;;;;;;5036996;28;20476;-66
2023/10/18 08:53:45;;;;;;;16.50;6.50;;;;;;;;;;5043773;28;20094;-67
2023/10/18 08:56:12;;;;;;;9.43;5.93;;;;;;;;;;5045115;28;20030;-66
2023/10/18 08:58:39;;;;;;;14.77;6.90;;;;;;;;;;5042637;28;20029;-67
2023/10/18 09:01:05;;;;;;;12.50;6.35;;;;;;;;;;5040616;28;20086;-66
2023/10/18 09:03:32;;;;;;;12.50;5.60;;;;;;;;;;5037851;28;20059;-67
2023/10/18 09:06:05;;;;;;;11.05;5.18;;;;;;;;;;5034448;28;20021;-65
2023/10/18 09:09:00;;;;;;;14.73;6.15;;;;;;;;;;5040862;28;20141;-66
2023/10/18 09:11:27;;;;;;;16.35;4.97;;;;;;;;;;5041836;28;20068;-66
2023/10/18 09:14:12;;;;;;;7.57;4.88;;;;;;;;;;5039031;28;20033;-65
2023/10/18 09:16:39;;;;;;;7.32;4.57;;;;;;;;;;5042997;28;20568;-65
2023/10/18 09:19:06;;;;;;;10.60;5.00;;;;;;;;;;5040568;28;20025;-66
2023/10/18 09:21:56;;;;;;;8.23;4.93;;;;;;;;;;5059360;28;20926;-66
2023/10/18 09:24:23;;;;;;;7.07;3.95;;;;;;;;;;5043488;28;20056;-67
2023/10/18 09:26:52;;;;;;;5.50;3.70;;;;;;;;;;5040250;28;20051;-66
2023/10/18 09:29:18;;;;;;;9.57;4.35;;;;;;;;;;5045508;28;20048;-66
2023/10/18 09:32:32;;;;;;;8.05;5.43;;;;;;;;;;5037278;28;20024;-66
2023/10/18 09:34:42;;;;;;;9.48;4.57;;;;;;;;;;5042493;28;20041;-65
2023/10/18 09:37:11;;;;;;;19.70;5.55;;;;;;;;;;5045228;28;20032;-65
2023/10/18 09:39:38;;;;;;;12.60;5.80;;;;;;;;;;5042181;28;20477;-67
2023/10/18 09:42:15;;;;;;;9.80;5.00;;;;;;;;;;5037905;28;20024;-66
2023/10/18 09:44:41;;;;;;;10.02;5.32;;;;;;;;;;5040025;28;20627;-65
2023/10/18 09:47:08;;;;;;;13.77;5.22;;;;;;;;;;5042326;28;20105;-66
2023/10/18 09:49:35;;;;;;;9.82;5.22;;;;;;;;;;5036859;28;20032;-67
2023/10/18 09:52:07;;;;;;;16.27;5.50;;;;;;;;;;5039500;28;20054;-66
2023/10/18 09:54:34;;;;;;;13.55;6.32;;;;;;;;;;5057323;28;20469;-67
2023/10/18 09:57:02;;;;;;;11.57;4.93;;;;;;;;;;5037009;28;20029;-69
2023/10/18 09:59:32;;;;;;;11.88;4.30;;;;;;;;;;5039690;28;20087;-66
2023/10/18 10:02:07;;;;;;;8.82;4.85;;;;;;;;;;5037349;28;20036;-69
2023/10/18 10:04:35;;;;;;;10.10;4.28;;;;;;;;;;5042913;28;20033;-67
2023/10/18 10:07:48;;;;;;;10.23;4.75;;;;;;;;;;5030448;28;20067;-66
2023/10/18 10:09:49;;;;;;;6.18;4.60;;;;;;;;;;5027199;28;20029;-66
2023/10/18 10:12:17;;;;;;;6.13;4.13;;;;;;;;;;5040722;28;20086;-65
2023/10/18 10:14:43;;;;;;;11.05;4.28;;;;;;;;;;5041245;28;20408;-66
2023/10/18 10:17:15;;;;;;;7.32;4.22;;;;;;;;;;5044150;28;20057;-66
2023/10/18 10:19:46;;;;;;;6.72;4.68;;;;;;;;;;5037411;28;20100;-66
2023/10/18 10:22:15;;;;;;;8.70;4.60;;;;;;;;;;5033141;28;20687;-66
2023/10/18 10:24:42;;;;;;;7.88;3.97;;;;;;;;;;5037236;28;20041;-69
2023/10/18 10:27:28;;;;;;;6.43;3.95;;;;;;;;;;5039533;28;20024;-69
2023/10/18 10:29:57;;;;;;;5.65;3.80;;;;;;;;;;5033970;28;20026;-65
2023/10/18 10:32:30;;;;;;;9.98;4.30;;;;;;;;;;5041400;28;20044;-67
2023/10/18 10:35:14;;;;;;;5.32;3.72;;;;;;;;;;5040673;28;20029;-66
2023/10/18 10:37:54;;;;;;;7.88;3.75;;;;;;;;;;5035160;28;20548;-67
2023/10/18 10:43:02;;;;;;;8.30;3.80;;;;;;;;;;5039286;28;20029;-69
2023/10/18 10:45:38;;;;;;;13.25;4.32;;;;;;;;;;5040802;28;20029;-69
2023/10/18 10:51:06;;;;;;;9.55;4.57;;;;;;;;;;5037403;28;20774;-69
2023/10/18 10:53:48;;;;;;;9.30;5.28;;;;;;;;;;5036743;28;20055;-69
2023/10/18 10:56:39;;;;;;;12.52;5.75;;;;;;;;;;5035953;28;20025;-69
2023/10/18 11:01:43;;;;;;;10.20;4.78;;;;;;;;;;5039925;28;20037;-69
2023/10/18 11:04:24;;;;;;;10.40;4.93;;;;;;;;;;5034657;28;20040;-69
2023/10/18 11:06:53;;;;;;;11.38;4.53;;;;;;;;;;5041044;28;20445;-68
2023/10/18 11:09:29;;;;;;;9.20;4.30;;;;;;;;;;5039143;28;20484;-68
2023/10/18 11:11:58;;;;;;;10.02;4.10;;;;;;;;;;5038169;28;20060;-69
2023/10/18 11:14:35;;;;;;;7.07;4.57;;;;;;;;;;5041539;28;20040;-69
2023/10/18 11:19:41;;;;;;;7.88;4.20;;;;;;;;;;5039898;28;20509;-69
2023/10/18 11:22:07;;;;;;;8.05;4.55;;;;;;;;;;5040711;28;20059;-69
2023/10/18 11:24:39;;;;;;;8.40;4.40;;;;;;;;;;5055028;28;20171;-71
2023/10/18 11:27:33;;;;;;;7.50;3.92;;;;;;;;;;5034718;28;20054;-68
2023/10/18 11:30:00;;;;;;;6.35;3.83;;;;;;;;;;5038268;28;20044;-70
2023/10/18 11:32:28;;;;;;;10.98;4.35;;;;;;;;;;5041021;28;20021;-69
2023/10/18 11:35:12;;;;;;;11.30;4.35;;;;;;;;;;5033084;28;20156;-69
2023/10/18 11:37:40;;;;;;;11.43;5.40;;;;;;;;;;5037917;28;20069;-70
2023/10/18 11:40:21;;;;;;;14.88;4.85;;;;;;;;;;5041272;28;20108;-70
2023/10/18 11:43:10;;;;;;;8.85;4.32;;;;;;;;;;5037299;28;20025;-68
2023/10/18 11:45:37;;;;;;;13.40;4.82;;;;;;;;;;5038976;28;20037;-69
2023/10/18 11:48:05;;;;;;;8.63;4.63;;;;;;;;;;5039191;28;20100;-69
2023/10/18 11:50:48;;;;;;;14.57;5.97;;;;;;;;;;5037856;28;20056;-69
2023/10/18 11:53:18;;;;;;;8.82;5.18;;;;;;;;;;5053494;28;20032;-67
2023/10/18 11:55:55;;;;;;;14.45;5.22;;;;;;;;;;5044162;28;20055;-69
2023/10/18 11:58:25;;;;;;;13.55;4.93;;;;;;;;;;5037004;28;20021;-69
2023/10/18 12:01:01;;;;;;;9.85;4.65;;;;;;;;;;5041454;28;20052;-69
2023/10/18 12:03:27;;;;;;;10.15;5.18;;;;;;;;;;5034173;28;20111;-69
2023/10/18 12:05:55;;;;;;;11.55;4.45;;;;;;;;;;5040362;28;20035;-64
2023/10/18 12:08:23;;;;;;;10.80;4.75;;;;;;;;;;5038161;28;20029;-72
2023/10/18 12:10:52;;;;;;;10.52;5.10;;;;;;;;;;5040703;28;20033;-71
2023/10/18 12:13:20;;;;;;;9.13;4.88;;;;;;;;;;5044300;28;20397;-71
2023/10/18 12:15:47;;;;;;;9.05;4.93;;;;;;;;;;5041050;28;20029;-71
2023/10/18 12:18:16;;;;;;;11.52;5.63;;;;;;;;;;5038096;28;20378;-70
2023/10/18 12:20:43;;;;;;;9.73;4.80;;;;;;;;;;5044481;28;20459;-71
2023/10/18 12:23:13;;;;;;;8.35;4.97;;;;;;;;;;5045134;28;20563;-70
2023/10/18 12:25:42;;;;;;;9.77;5.57;;;;;;;;;;5042928;28;20037;-70
2023/10/18 12:28:19;;;;;;;9.43;5.00;;;;;;;;;;5042553;28;20036;-70
2023/10/18 12:30:55;;;;;;;12.88;5.43;;;;;;;;;;5040292;28;20052;-71
2023/10/18 12:33:28;;;;;;;13.68;5.95;;;;;;;;;;5037446;28;20064;-71
2023/10/18 12:35:59;;;;;;;15.48;5.32;;;;;;;;;;5045465;28;20511;-71
2023/10/18 12:38:36;;;;;;;13.95;6.05;;;;;;;;;;5044004;28;20381;-70
2023/10/18 12:43:45;;;;;;;12.70;6.07;;;;;;;;;;5037436;28;20068;-70
2023/10/18 12:46:17;;;;;;;11.48;5.72;;;;;;;;;;5060481;28;20021;-71
2023/10/18 12:48:49;;;;;;;16.50;6.10;;;;;;;;;;5040996;28;20025;-71
2023/10/18 12:51:18;;;;;;;8.20;5.13;;;;;;;;;;5040268;28;20075;-72
2023/10/18 12:53:48;;;;;;;13.30;6.40;;;;;;;;;;5043251;28;20503;-71
2023/10/18 13:04:08;;;;;;;16.67;6.13;;;;;;;;;;5041730;28;20142;-70
2023/10/18 13:06:35;;;;;;;13.32;6.10;;;;;;;;;;5040839;28;20064;-71
2023/10/18 13:11:44;;;;;;;18.83;6.82;;;;;;;;;;5040411;28;20075;-71
2023/10/18 13:14:15;;;;;;;16.85;8.55;;;;;;;;;;5041703;28;20771;-71
2023/10/18 13:16:44;;;;;;;15.50;6.20;;;;;;;;;;5041649;28;20120;-71
2023/10/18 13:19:14;;;;;;;16.05;6.53;;;;;;;;;;5041208;28;20029;-71
2023/10/18 13:21:40;;;;;;;12.80;5.55;;;;;;;;;;5041272;28;20114;-71
2023/10/18 13:26:51;;;;;;;11.07;5.45;;;;;;;;;;5043110;28;20032;-71
2023/10/18 13:31:47;;;;;;;12.35;5.32;;;;;;;;;;5042370;28;20025;-71
2023/10/18 13:34:19;;;;;;;14.55;5.43;;;;;;;;;;5042391;28;20028;-71
2023/10/18 13:36:48;;;;;;;14.10;6.50;;;;;;;;;;5042104;28;20056;-71
2023/10/18 13:39:16;;;;;;;12.02;6.53;;;;;;;;;;5040154;28;20036;-71
2023/10/18 13:41:52;;;;;;;13.00;6.45;;;;;;;;;;5039728;28;20053;-72
2023/10/18 13:44:19;;;;;;;14.30;5.47;;;;;;;;;;5039431;28;20143;-71
2023/10/18 13:46:47;;;;;;;19.55;7.00;;;;;;;;;;5041125;28;20764;-71
2023/10/18 13:49:17;;;;;;;17.20;6.82;;;;;;;;;;5038631;28;20111;-71
2023/10/18 13:51:43;;;;;;;10.10;6.60;;;;;;;;;;5041244;28;20029;-71
2023/10/18 13:54:09;;;;;;;13.75;7.78;;;;;;;;;;5041190;28;20506;-71
2023/10/18 13:56:35;;;;;;;18.40;6.00;;;;;;;;;;5041195;28;20044;-71
2023/10/18 13:59:02;;;;;;;12.82;7.82;;;;;;;;;;5042866;28;20112;-71
2023/10/18 14:01:28;;;;;;;15.70;7.07;;;;;;;;;;5041954;28;20497;-71
2023/10/18 14:03:55;;;;;;;11.40;6.85;;;;;;;;;;5034138;28;20033;-71
2023/10/18 14:06:22;;;;;;;13.05;6.68;;;;;;;;;;5050552;28;20030;-72
2023/10/18 14:08:48;;;;;;;12.68;5.93;;;;;;;;;;5041285;28;20025;-72
2023/10/18 14:11:17;;;;;;;12.32;6.43;;;;;;;;;;5040540;28;20044;-70
2023/10/18 14:13:44;;;;;;;14.10;6.50;;;;;;;;;;5037674;28;20451;-71
2023/10/18 14:16:16;;;;;;;15.82;6.20;;;;;;;;;;5040139;28;20071;-71
2023/10/18 14:18:45;;;;;;;16.08;6.32;;;;;;;;;;5040127;28;20048;-72
2023/10/18 14:21:14;;;;;;;12.93;6.80;;;;;;;;;;5041561;28;20496;-71
2023/10/18 14:23:47;;;;;;;13.05;5.95;;;;;;;;;;5041997;28;20139;-71
2023/10/18 14:26:17;;;;;;;16.38;6.82;;;;;;;;;;5041620;28;20372;-71
2023/10/18 14:28:45;;;;;;;16.63;6.47;;;;;;;;;;5034295;28;20559;-72
2023/10/18 14:31:15;;;;;;;16.50;6.75;;;;;;;;;;5041453;28;20429;-71
2023/10/18 14:33:41;;;;;;;12.88;7.07;;;;;;;;;;5038250;28;20025;-71
2023/10/18 14:36:08;;;;;;;11.65;6.20;;;;;;;;;;5041141;28;20477;-71
2023/10/18 14:38:34;;;;;;;15.95;6.28;;;;;;;;;;5041653;28;20025;-71
2023/10/18 14:41:04;;;;;;;11.93;5.75;;;;;;;;;;5038909;28;20586;-71
2023/10/18 14:43:34;;;;;;;11.85;5.78;;;;;;;;;;5039785;28;20094;-71
2023/10/18 14:46:01;;;;;;;13.15;6.22;;;;;;;;;;5051876;28;20028;-71
2023/10/18 14:48:27;;;;;;;12.85;6.00;;;;;;;;;;5037253;28;20032;-71
2023/10/18 14:50:54;;;;;;;17.73;7.82;;;;;;;;;;5041471;28;20025;-71
2023/10/18 14:53:20;;;;;;;11.48;6.13;;;;;;;;;;5040186;28;20039;-71
2023/10/18 14:55:46;;;;;;;17.75;6.65;;;;;;;;;;5037033;28;20025;-71
2023/10/18 14:58:12;;;;;;;14.15;6.85;;;;;;;;;;5038968;28;20684;-71
2023/10/18 15:00:43;;;;;;;15.18;7.90;;;;;;;;;;5038925;28;20040;-71
2023/10/18 15:03:12;;;;;;;12.30;5.95;;;;;;;;;;5036585;28;20081;-72
2023/10/18 15:05:41;;;;;;;13.45;5.80;;;;;;;;;;5039023;28;20124;-71
2023/10/18 15:08:07;;;;;;;14.15;6.32;;;;;;;;;;5037219;28;20060;-71
2023/10/18 15:10:33;;;;;;;12.75;6.05;;;;;;;;;;5036884;28;20481;-70
2023/10/18 15:13:00;;;;;;;16.58;6.15;;;;;;;;;;5044518;28;20024;-70
2023/10/18 15:15:27;;;;;;;14.98;5.55;;;;;;;;;;5037850;28;20120;-71
2023/10/18 15:17:58;;;;;;;14.55;6.20;;;;;;;;;;5039602;28;20507;-71
2023/10/18 15:20:26;;;;;;;11.05;6.57;;;;;;;;;;5039216;28;20039;-71
2023/10/18 15:22:55;;;;;;;17.45;6.50;;;;;;;;;;5033313;28;20087;-71
2023/10/18 15:25:21;;;;;;;19.38;7.20;;;;;;;;;;5036987;28;20033;-71
2023/10/18 15:27:48;;;;;;;10.80;7.57;;;;;;;;;;5034973;28;20057;-71
2023/10/18 15:30:17;;;;;;;12.43;6.50;;;;;;;;;;5039391;28;20025;-72
2023/10/18 15:32:47;;;;;;;17.90;6.80;;;;;;;;;;5032065;28;20041;-72
2023/10/18 15:35:15;;;;;;;17.10;7.95;;;;;;;;;;5039743;28;20082;-71
2023/10/18 15:37:44;;;;;;;14.05;7.90;;;;;;;;;;5040098;28;20059;-71
2023/10/18 15:40:13;;;;;;;19.52;6.97;;;;;;;;;;5043737;28;20493;-71
2023/10/18 15:42:43;;;;;;;13.57;6.05;;;;;;;;;;5042055;28;20465;-71
2023/10/18 15:45:13;;;;;;;14.20;6.32;;;;;;;;;;5046035;28;20079;-71
2023/10/18 15:47:39;;;;;;;14.70;6.30;;;;;;;;;;5036843;28;20112;-73
2023/10/18 15:50:09;;;;;;;17.73;6.68;;;;;;;;;;5038849;28;20052;-73
2023/10/18 15:52:37;;;;;;;17.17;6.90;;;;;;;;;;5023928;28;20481;-71
2023/10/18 15:55:13;;;;;;;17.50;6.85;;;;;;;;;;5046262;28;20021;-71
2023/10/18 15:57:39;;;;;;;14.30;6.70;;;;;;;;;;5044238;28;20209;-71
2023/10/18 16:00:09;;;;;;;15.25;7.38;;;;;;;;;;5040935;28;20423;-71
2023/10/18 16:02:37;;;;;;;11.95;7.88;;;;;;;;;;5044115;28;20025;-71
2023/10/18 16:05:03;;;;;;;14.88;8.68;;;;;;;;;;5043104;28;20029;-71